createdAt,value
2023-03-14T00:00:35.211Z,100.00
2023-03-14T00:03:20.706Z,100.00
2023-03-14T00:06:07.622Z,100.00
2023-03-14T00:08:52.954Z,100.00
2023-03-14T00:11:38.131Z,100.00
2023-03-14T00:14:23.312Z,100.00
2023-03-14T00:17:08.467Z,100.00
2023-03-14T00:19:54.979Z,100.00
2023-03-14T00:22:41.395Z,100.00
2023-03-14T00:25:26.376Z,100.00
2023-03-14T00:28:11.714Z,100.00
2023-03-14T00:30:57.148Z,100.00
2023-03-14T00:33:43.389Z,100.00
2023-03-14T00:36:28.702Z,100.00
2023-03-14T00:39:13.868Z,100.00
2023-03-14T00:41:59.218Z,100.00
2023-03-14T00:44:44.408Z,100.00
2023-03-14T00:47:29.438Z,100.00
2023-03-14T00:50:14.857Z,100.00
2023-03-14T00:52:59.892Z,100.00
2023-03-14T00:55:45.496Z,100.00
2023-03-14T00:58:30.623Z,100.00
2023-03-14T01:01:19.193Z,100.00
2023-03-14T01:04:04.367Z,100.00
2023-03-14T01:06:49.682Z,100.00
2023-03-14T01:09:34.971Z,100.00
2023-03-14T01:12:20.078Z,100.00
2023-03-14T01:15:05.908Z,100.00
2023-03-14T01:17:51.132Z,100.00
2023-03-14T01:20:38.251Z,100.00
2023-03-14T01:23:23.344Z,100.00
2023-03-14T01:26:13.653Z,100.00
2023-03-14T01:28:58.938Z,100.00
2023-03-14T01:31:44.378Z,100.00
2023-03-14T01:34:29.450Z,100.00
2023-03-14T01:37:14.484Z,100.00
2023-03-14T01:39:59.752Z,100.00
2023-03-14T01:42:55.938Z,100.00
2023-03-14T01:46:16.008Z,100.00
2023-03-14T01:49:10.156Z,100.00
2023-03-14T01:52:03.791Z,100.00
2023-03-14T01:54:54.130Z,100.00
2023-03-14T01:58:13.186Z,100.00
2023-03-14T02:00:59.841Z,100.00
2023-03-14T02:03:56.003Z,100.00
2023-03-14T02:07:08.409Z,100.00
2023-03-14T02:09:54.257Z,100.00
2023-03-14T02:12:40.195Z,100.00
2023-03-14T02:15:25.652Z,100.00
2023-03-14T02:18:12.613Z,100.00
2023-03-14T02:21:23.369Z,100.00
2023-03-14T02:24:26.992Z,100.00
2023-03-14T02:27:20.955Z,100.00
2023-03-14T02:30:13.154Z,100.00
2023-03-14T02:33:11.159Z,100.00
2023-03-14T02:36:02.507Z,100.00
2023-03-14T02:39:15.149Z,100.00
2023-03-14T02:42:00.320Z,100.00
2023-03-14T02:44:53.336Z,100.00
2023-03-14T02:47:44.015Z,100.00
2023-03-14T02:50:34.413Z,100.00
2023-03-14T02:53:24.697Z,100.00
2023-03-14T02:56:10.685Z,100.00
2023-03-14T02:58:56.131Z,100.00
2023-03-14T03:01:41.511Z,100.00
2023-03-14T03:04:26.855Z,100.00
2023-03-14T03:07:11.714Z,100.00
2023-03-14T03:09:56.852Z,100.00
2023-03-14T03:12:41.836Z,100.00
2023-03-14T03:15:27.684Z,100.00
2023-03-14T03:18:13.227Z,100.00
2023-03-14T03:21:01.742Z,100.00
2023-03-14T03:23:46.792Z,100.00
2023-03-14T03:26:31.881Z,100.00
2023-03-14T03:29:17.247Z,99.90
2023-03-14T03:32:02.789Z,98.76
2023-03-14T03:34:47.943Z,98.55
2023-03-14T03:37:34.070Z,98.83
2023-03-14T03:40:18.996Z,98.59
2023-03-14T03:43:04.950Z,99.34
2023-03-14T03:45:50.151Z,99.84
2023-03-14T03:48:36.162Z,100.00
2023-03-14T03:51:21.455Z,100.00
2023-03-14T03:54:06.641Z,100.00
2023-03-14T03:56:52.482Z,100.00
2023-03-14T03:59:39.714Z,100.00
2023-03-14T04:02:25.046Z,100.00
2023-03-14T04:05:10.420Z,100.00
2023-03-14T04:07:55.609Z,100.00
2023-03-14T04:10:40.583Z,100.00
2023-03-14T04:13:26.899Z,100.00
2023-03-14T04:16:21.435Z,100.00
2023-03-14T04:19:06.852Z,100.00
2023-03-14T04:21:52.022Z,100.00
2023-03-14T04:24:37.588Z,100.00
2023-03-14T04:27:22.934Z,100.00
2023-03-14T04:30:09.138Z,100.00
2023-03-14T04:32:54.334Z,99.36
2023-03-14T04:35:39.834Z,98.04
2023-03-14T04:38:25.285Z,97.30
2023-03-14T04:41:10.477Z,96.92
2023-03-14T04:43:55.528Z,96.39
2023-03-14T04:46:40.649Z,96.63
2023-03-14T04:49:26.108Z,96.03
2023-03-14T04:52:11.790Z,96.68
2023-03-14T04:54:56.759Z,95.96
2023-03-14T04:57:42.055Z,95.03
2023-03-14T05:00:27.154Z,96.50
2023-03-14T05:03:12.467Z,97.07
2023-03-14T05:05:59.522Z,97.08
2023-03-14T05:08:44.606Z,97.05
2023-03-14T05:11:30.437Z,96.36
2023-03-14T05:14:15.706Z,96.29
2023-03-14T05:17:00.881Z,96.49
2023-03-14T05:19:45.802Z,96.60
2023-03-14T05:22:31.162Z,96.14
2023-03-14T05:25:16.518Z,95.32
2023-03-14T05:28:01.891Z,96.73
2023-03-14T05:30:47.358Z,96.24
2023-03-14T05:33:32.654Z,95.44
2023-03-14T05:36:18.181Z,95.38
2023-03-14T05:39:03.895Z,94.32
2023-03-14T05:41:48.882Z,95.85
2023-03-14T05:44:34.203Z,94.26
2023-03-14T05:47:19.379Z,93.76
2023-03-14T05:50:04.829Z,94.34
2023-03-14T05:52:49.783Z,93.70
2023-03-14T05:55:34.744Z,93.29
2023-03-14T05:58:20.082Z,93.28
2023-03-14T06:01:06.938Z,92.19
2023-03-14T06:03:52.404Z,92.84
2023-03-14T06:06:37.826Z,91.14
2023-03-14T06:09:24.362Z,91.21
2023-03-14T06:12:09.367Z,91.50
2023-03-14T06:14:54.820Z,91.19
2023-03-14T06:17:40.317Z,90.81
2023-03-14T06:20:25.584Z,91.25
2023-03-14T06:23:11.041Z,91.84
2023-03-14T06:25:56.356Z,91.95
2023-03-14T06:28:41.537Z,92.12
2023-03-14T06:31:26.835Z,92.53
2023-03-14T06:34:12.043Z,92.91
2023-03-14T06:36:57.432Z,93.17
2023-03-14T06:39:42.660Z,92.56
2023-03-14T06:42:28.024Z,93.21
2023-03-14T06:45:14.227Z,92.99
2023-03-14T06:47:59.556Z,92.81
2023-03-14T06:50:44.815Z,92.45
2023-03-14T06:53:30.108Z,91.89
2023-03-14T06:56:15.393Z,91.62
2023-03-14T06:59:00.650Z,92.21
2023-03-14T07:01:45.818Z,91.78
2023-03-14T07:04:31.083Z,92.26
2023-03-14T07:07:17.530Z,91.47
2023-03-14T07:10:02.730Z,91.51
2023-03-14T07:12:48.214Z,91.19
2023-03-14T07:15:33.693Z,90.90
2023-03-14T07:18:19.041Z,89.79
2023-03-14T07:21:04.378Z,90.37
2023-03-14T07:23:49.521Z,90.74
2023-03-14T07:26:34.967Z,90.73
2023-03-14T07:29:20.396Z,91.10
2023-03-14T07:32:05.720Z,91.21
2023-03-14T07:34:51.260Z,91.07
2023-03-14T07:37:36.862Z,90.99
2023-03-14T07:40:22.124Z,91.28
2023-03-14T07:43:07.491Z,91.71
2023-03-14T07:45:58.972Z,90.93
2023-03-14T07:48:44.236Z,90.96
2023-03-14T07:51:29.594Z,90.93
2023-03-14T07:54:14.868Z,90.63
2023-03-14T07:57:01.666Z,90.90
2023-03-14T07:59:46.727Z,91.06
2023-03-14T08:02:31.946Z,91.15
2023-03-14T08:05:17.797Z,90.54
2023-03-14T08:08:03.907Z,90.92
2023-03-14T08:10:48.948Z,90.65
2023-03-14T08:13:34.136Z,90.91
2023-03-14T08:16:20.314Z,90.74
2023-03-14T08:19:05.733Z,90.26
2023-03-14T08:21:50.939Z,89.66
2023-03-14T08:24:36.279Z,89.36
2023-03-14T08:27:21.625Z,89.41
2023-03-14T08:30:08.442Z,90.07
2023-03-14T08:32:53.773Z,90.68
2023-03-14T08:35:40.417Z,91.14
2023-03-14T08:38:25.520Z,92.12
2023-03-14T08:41:11.396Z,93.03
2023-03-14T08:43:56.264Z,94.01
2023-03-14T08:46:41.619Z,95.34
2023-03-14T08:49:26.927Z,95.67
2023-03-14T08:52:12.534Z,96.75
2023-03-14T08:54:58.277Z,97.96
2023-03-14T08:57:43.325Z,98.23
2023-03-14T09:00:28.486Z,99.91
2023-03-14T09:03:14.182Z,100.00
2023-03-14T09:06:06.331Z,100.00
2023-03-14T09:08:51.518Z,100.00
2023-03-14T09:11:36.737Z,100.00
2023-03-14T09:14:23.154Z,100.00
2023-03-14T09:17:08.853Z,100.00
2023-03-14T09:19:54.376Z,100.00
2023-03-14T09:22:39.586Z,100.00
2023-03-14T09:25:24.636Z,100.00
2023-03-14T09:28:09.901Z,100.00
2023-03-14T09:30:55.533Z,100.00
2023-03-14T09:33:40.412Z,100.00
2023-03-14T09:36:25.917Z,100.00
2023-03-14T09:39:12.481Z,100.00
2023-03-14T09:42:02.381Z,100.00
2023-03-14T09:44:57.458Z,100.00
2023-03-14T09:47:56.516Z,100.00
2023-03-14T09:50:49.830Z,100.00
2023-03-14T09:53:44.392Z,100.00
2023-03-14T09:56:33.437Z,100.00
2023-03-14T09:59:18.845Z,100.00
2023-03-14T10:02:15.846Z,100.00
2023-03-14T10:05:06.663Z,100.00
2023-03-14T10:07:52.142Z,100.00
2023-03-14T10:10:37.436Z,100.00
2023-03-14T10:13:27.113Z,100.00
2023-03-14T10:16:12.651Z,100.00
2023-03-14T10:19:04.224Z,100.00
2023-03-14T10:21:55.106Z,100.00
2023-03-14T10:24:47.057Z,100.00
2023-03-14T10:27:35.095Z,100.00
2023-03-14T10:30:46.130Z,100.00
2023-03-14T10:33:34.243Z,100.00
2023-03-14T10:36:27.410Z,100.00
2023-03-14T10:39:18.764Z,100.00
2023-03-14T10:42:32.679Z,100.00
2023-03-14T10:45:29.727Z,100.00
2023-03-14T10:48:44.077Z,100.00
2023-03-14T10:51:30.815Z,100.00
2023-03-14T10:54:24.907Z,100.00
2023-03-14T10:57:12.426Z,100.00
2023-03-14T11:00:00.108Z,100.00
2023-03-14T11:03:14.932Z,100.00
2023-03-14T11:06:16.784Z,100.00
2023-03-14T11:09:12.096Z,100.00
2023-03-14T11:12:10.885Z,100.00
2023-03-14T11:15:06.698Z,100.00
2023-03-14T11:18:05.335Z,100.00
2023-03-14T11:21:16.924Z,100.00
2023-03-14T11:24:20.532Z,100.00
2023-03-14T11:27:19.555Z,100.00
2023-03-14T11:30:23.461Z,100.00
2023-03-14T11:33:16.868Z,100.00
2023-03-14T11:36:10.145Z,100.00
2023-03-14T11:39:00.777Z,98.53
2023-03-14T11:41:54.870Z,96.49
2023-03-14T11:44:41.885Z,95.73
2023-03-14T11:47:40.855Z,94.20
2023-03-14T11:50:30.915Z,93.54
2023-03-14T11:53:39.123Z,92.51
2023-03-14T11:56:32.466Z,91.09
2023-03-14T11:59:26.265Z,90.59
2023-03-14T12:02:38.514Z,90.30
2023-03-14T12:05:29.160Z,88.76
2023-03-14T12:08:30.613Z,89.94
2023-03-14T12:11:21.649Z,85.58
2023-03-14T12:14:18.933Z,82.86
2023-03-14T12:17:07.379Z,81.33
2023-03-14T12:20:26.076Z,81.62
2023-03-14T12:23:13.165Z,80.08
2023-03-14T12:26:13.688Z,79.00
2023-03-14T12:28:58.728Z,78.03
2023-03-14T12:31:47.249Z,76.48
2023-03-14T12:34:43.107Z,75.51
2023-03-14T12:37:46.150Z,74.61
2023-03-14T12:40:40.830Z,74.95
2023-03-14T12:43:29.566Z,73.52
2023-03-14T12:46:22.951Z,73.01
2023-03-14T12:49:10.231Z,71.80
2023-03-14T12:52:01.354Z,71.00
2023-03-14T12:54:58.336Z,70.74
2023-03-14T12:57:48.379Z,71.95
2023-03-14T13:00:36.636Z,73.14
2023-03-14T13:03:28.294Z,71.68
2023-03-14T13:06:13.827Z,69.45
2023-03-14T13:08:58.787Z,67.88
2023-03-14T13:11:44.200Z,67.46
2023-03-14T13:14:32.102Z,68.68
2023-03-14T13:17:34.445Z,69.21
2023-03-14T13:20:28.527Z,69.78
2023-03-14T13:23:26.307Z,67.67
2023-03-14T13:26:15.984Z,66.17
2023-03-14T13:29:01.014Z,67.25
2023-03-14T13:31:48.056Z,66.98
2023-03-14T13:34:35.424Z,64.66
2023-03-14T13:37:23.072Z,66.12
2023-03-14T13:40:27.145Z,64.72
2023-03-14T13:43:26.509Z,65.49
2023-03-14T13:46:22.914Z,63.80
2023-03-14T13:49:13.717Z,63.59
2023-03-14T13:51:59.429Z,65.18
2023-03-14T13:54:44.465Z,65.04
2023-03-14T13:57:43.200Z,64.69
2023-03-14T14:00:29.117Z,68.08
2023-03-14T14:03:14.536Z,65.21
2023-03-14T14:06:00.004Z,66.15
2023-03-14T14:08:46.167Z,64.01
2023-03-14T14:11:48.807Z,61.87
2023-03-14T14:14:50.260Z,58.10
2023-03-14T14:17:44.756Z,57.72
2023-03-14T14:20:36.033Z,54.78
2023-03-14T14:23:29.973Z,53.41
2023-03-14T14:26:18.776Z,52.07
2023-03-14T14:29:06.760Z,51.34
2023-03-14T14:32:02.600Z,50.26
2023-03-14T14:35:10.878Z,49.39
2023-03-14T14:37:55.910Z,50.20
2023-03-14T14:40:46.607Z,49.15
2023-03-14T14:43:37.359Z,50.63
2023-03-14T14:46:22.715Z,51.12
2023-03-14T14:49:14.628Z,50.13
2023-03-14T14:52:07.390Z,49.52
2023-03-14T14:54:55.755Z,49.62
2023-03-14T14:57:42.371Z,48.79
2023-03-14T15:00:28.626Z,48.77
2023-03-14T15:03:16.719Z,47.71
2023-03-14T15:06:03.188Z,47.63
2023-03-14T15:08:49.619Z,48.35
2023-03-14T15:11:34.666Z,48.82
2023-03-14T15:14:20.085Z,48.09
2023-03-14T15:17:06.794Z,49.12
2023-03-14T15:19:51.838Z,50.03
2023-03-14T15:22:36.780Z,50.92
2023-03-14T15:25:47.427Z,50.11
2023-03-14T15:28:30.856Z,51.70
2023-03-14T15:31:18.854Z,50.97
2023-03-14T15:34:04.389Z,50.92
2023-03-14T15:36:49.675Z,51.95
2023-03-14T15:39:35.974Z,51.40
2023-03-14T15:42:20.959Z,52.50
2023-03-14T15:45:07.126Z,52.33
2023-03-14T15:47:52.141Z,52.39
2023-03-14T15:50:37.493Z,53.48
2023-03-14T15:53:23.194Z,52.89
2023-03-14T15:56:12.842Z,52.47
2023-03-14T15:58:58.038Z,50.46
2023-03-14T16:01:43.146Z,51.69
2023-03-14T16:04:30.320Z,52.13
2023-03-14T16:07:15.958Z,51.06
2023-03-14T16:10:01.334Z,51.20
2023-03-14T16:12:46.739Z,51.22
2023-03-14T16:15:32.029Z,50.88
2023-03-14T16:18:21.904Z,52.77
2023-03-14T16:21:12.442Z,52.71
2023-03-14T16:23:57.650Z,51.34
2023-03-14T16:26:42.822Z,50.92
2023-03-14T16:29:28.193Z,50.59
2023-03-14T16:32:13.336Z,51.25
2023-03-14T16:34:58.657Z,51.94
2023-03-14T16:37:44.041Z,51.77
2023-03-14T16:40:29.456Z,50.76
2023-03-14T16:43:16.237Z,50.94
2023-03-14T16:46:02.081Z,51.31
2023-03-14T16:48:47.266Z,51.88
2023-03-14T16:51:33.092Z,51.35
2023-03-14T16:54:18.142Z,51.37
2023-03-14T16:57:03.627Z,51.48
2023-03-14T16:59:50.633Z,50.81
2023-03-14T17:02:35.626Z,51.90
2023-03-14T17:05:22.295Z,52.04
2023-03-14T17:08:07.477Z,52.33
2023-03-14T17:10:52.823Z,53.36
2023-03-14T17:13:39.073Z,52.37
2023-03-14T17:16:24.956Z,51.79
2023-03-14T17:19:10.102Z,51.35
2023-03-14T17:22:09.388Z,51.91
2023-03-14T17:25:01.473Z,51.88
2023-03-14T17:27:46.561Z,52.56
2023-03-14T17:30:32.147Z,53.11
2023-03-14T17:33:17.897Z,53.54
2023-03-14T17:36:04.104Z,54.18
2023-03-14T17:38:49.574Z,54.50
2023-03-14T17:41:34.844Z,55.06
2023-03-14T17:44:20.195Z,55.45
2023-03-14T17:47:06.583Z,55.28
2023-03-14T17:49:51.908Z,55.85
2023-03-14T17:52:37.768Z,56.82
2023-03-14T17:55:22.746Z,57.64
2023-03-14T17:58:07.910Z,57.40
2023-03-14T18:00:53.127Z,57.54
2023-03-14T18:03:38.768Z,58.15
2023-03-14T18:06:23.957Z,58.52
2023-03-14T18:09:09.239Z,58.79
2023-03-14T18:12:07.116Z,60.22
2023-03-14T18:14:53.703Z,60.99
2023-03-14T18:17:40.536Z,61.71
2023-03-14T18:20:25.508Z,62.72
2023-03-14T18:23:10.798Z,62.75
2023-03-14T18:25:59.146Z,61.04
2023-03-14T18:28:44.888Z,60.42
2023-03-14T18:31:31.460Z,60.73
2023-03-14T18:34:16.970Z,60.36
2023-03-14T18:37:02.547Z,59.57
2023-03-14T18:39:47.668Z,59.80
2023-03-14T18:42:32.637Z,60.68
2023-03-14T18:45:17.855Z,61.07
2023-03-14T18:48:03.893Z,61.67
2023-03-14T18:50:48.887Z,62.28
2023-03-14T18:53:33.754Z,63.14
2023-03-14T18:56:18.998Z,63.75
2023-03-14T18:59:04.253Z,63.71
2023-03-14T19:01:49.333Z,64.68
2023-03-14T19:04:34.369Z,64.86
2023-03-14T19:07:20.634Z,65.97
2023-03-14T19:10:06.316Z,66.71
2023-03-14T19:12:51.481Z,66.61
2023-03-14T19:15:36.753Z,67.47
2023-03-14T19:18:22.133Z,67.48
2023-03-14T19:21:10.334Z,67.46
2023-03-14T19:23:55.681Z,68.12
2023-03-14T19:26:40.872Z,67.70
2023-03-14T19:29:26.131Z,68.29
2023-03-14T19:32:12.375Z,68.88
2023-03-14T19:34:57.941Z,68.88
2023-03-14T19:37:45.411Z,69.48
2023-03-14T19:40:31.213Z,69.64
2023-03-14T19:43:17.215Z,70.05
2023-03-14T19:46:02.395Z,70.23
2023-03-14T19:48:48.906Z,71.18
2023-03-14T19:51:35.625Z,71.18
2023-03-14T19:54:22.520Z,71.04
2023-03-14T19:57:07.621Z,71.39
2023-03-14T19:59:52.804Z,71.26
2023-03-14T20:02:38.382Z,70.78
2023-03-14T20:05:24.683Z,71.01
2023-03-14T20:08:10.110Z,71.29
2023-03-14T20:10:55.572Z,71.52
2023-03-14T20:13:41.118Z,71.67
2023-03-14T20:16:26.856Z,71.39
2023-03-14T20:19:13.352Z,71.18
2023-03-14T20:21:58.609Z,70.82
2023-03-14T20:24:44.130Z,71.46
2023-03-14T20:27:29.160Z,71.21
2023-03-14T20:30:18.696Z,71.12
2023-03-14T20:33:04.665Z,71.62
2023-03-14T20:35:59.130Z,72.32
2023-03-14T20:38:44.442Z,72.41
2023-03-14T20:41:29.855Z,72.51
2023-03-14T20:44:15.238Z,72.52
2023-03-14T20:47:00.833Z,72.89
2023-03-14T20:49:46.292Z,71.95
2023-03-14T20:52:31.463Z,71.53
2023-03-14T20:55:16.519Z,71.03
2023-03-14T20:58:03.036Z,71.20
2023-03-14T21:00:50.321Z,70.85
2023-03-14T21:03:35.739Z,71.02
2023-03-14T21:06:22.310Z,70.74
2023-03-14T21:09:07.562Z,70.79
2023-03-14T21:11:53.072Z,70.71
2023-03-14T21:14:38.509Z,70.98
2023-03-14T21:17:23.821Z,71.26
2023-03-14T21:20:11.050Z,71.34
2023-03-14T21:22:55.999Z,71.96
2023-03-14T21:25:44.552Z,71.91
2023-03-14T21:28:30.086Z,71.68
2023-03-14T21:31:15.372Z,71.62
2023-03-14T21:34:00.719Z,71.70
2023-03-14T21:36:48.313Z,72.05
2023-03-14T21:39:33.807Z,72.89
2023-03-14T21:42:19.221Z,72.96
2023-03-14T21:45:05.145Z,73.68
2023-03-14T21:47:50.327Z,74.56
2023-03-14T21:50:35.426Z,75.49
2023-03-14T21:53:21.181Z,76.08
2023-03-14T21:56:06.900Z,77.00
2023-03-14T21:58:52.002Z,78.35
2023-03-14T22:01:37.180Z,79.66
2023-03-14T22:04:26.497Z,81.65
2023-03-14T22:07:14.986Z,84.18
2023-03-14T22:10:01.251Z,86.26
2023-03-14T22:12:46.477Z,88.67
2023-03-14T22:15:31.540Z,90.70
2023-03-14T22:18:17.691Z,92.50
2023-03-14T22:21:02.744Z,93.98
2023-03-14T22:23:49.918Z,95.45
2023-03-14T22:26:34.927Z,96.58
2023-03-14T22:29:20.171Z,97.25
2023-03-14T22:32:06.026Z,97.80
2023-03-14T22:34:50.819Z,98.34
2023-03-14T22:37:36.593Z,99.22
2023-03-14T22:40:21.776Z,99.89
2023-03-14T22:43:07.241Z,100.00
2023-03-14T22:45:59.582Z,100.00
2023-03-14T22:48:44.980Z,100.00
2023-03-14T22:51:30.074Z,100.00
2023-03-14T22:54:15.321Z,100.00
2023-03-14T22:57:00.302Z,100.00
2023-03-14T22:59:45.476Z,100.00
2023-03-14T23:02:30.622Z,100.00
2023-03-14T23:05:15.845Z,100.00
2023-03-14T23:08:01.203Z,100.00
2023-03-14T23:10:46.607Z,100.00
2023-03-14T23:13:33.480Z,100.00
2023-03-14T23:16:23.242Z,100.00
2023-03-14T23:19:15.894Z,100.00
2023-03-14T23:22:01.212Z,100.00
2023-03-14T23:24:48.692Z,100.00
2023-03-14T23:27:34.793Z,100.00
2023-03-14T23:30:21.018Z,100.00
2023-03-14T23:33:06.768Z,100.00
2023-03-14T23:35:54.393Z,100.00
2023-03-14T23:38:41.965Z,100.00
2023-03-14T23:41:27.202Z,100.00
2023-03-14T23:44:15.263Z,100.00
2023-03-14T23:47:00.204Z,100.00
2023-03-14T23:49:45.238Z,100.00
2023-03-14T23:52:30.451Z,100.00
2023-03-14T23:55:15.630Z,100.00
2023-03-14T23:58:02.839Z,100.00
